Impacts TAF Board INFO
FOR SITUATIONAL AWARENESS. NOT TO BE USED FOR FLIGHT PLANNING PURPOSES.
IDs:

KPDX - Portland Intl Arpt, OR, US

Issued at 1726 UTC 18 Jul 2018
Updated at 2025 UTC 18 Jul 2018
Potential Impact None Slight Moderate High
Time1953Z 18/21Z 18/22Z 18/23Z 19/00Z 19/01Z 19/02Z 19/03Z 19/04Z 19/05Z 19/06Z 19/07Z 19/08Z 19/09Z>>
Type OBS PRVL PRVL PRVL PRVL PRVL PRVL PRVL PRVL PRVL PRVL PRVL PRVL PRVL
VIS 10 >6 >6 >6 >6 >6 >6 >6 >6 >6 >6 >6 >6 >6
CIG -- -- -- -- -- -- -- -- -- -- -- -- -- --
Cover FEW SCT SCT SCT SCT SCT SCT SCT SCT SCT SCT SCT SCT SCT
FltCat VFR VFR VFR VFR VFR VFR VFR VFR VFR VFR VFR VFR VFR VFR
WX -- -- -- -- -- -- -- -- -- -- -- -- -- --
WDir VRB 310 310 310 310 310 310 310 310 310 310 310 310 310
WSpd 4 9 9 9 9 9 9 9 9 9 9 9 9 9
WGst -- -- -- -- -- -- -- -- -- -- -- -- -- --

Raw TAF
KPDX 181726Z 1818/1918 33003KT P6SM OVC025
  FM181900 34004KT P6SM BKN030
  FM182000 31009KT P6SM SCT035
  FM191000 32005KT P6SM BKN025
  FM191700 33005KT P6SM SCT025 BKN035


Raw METAR
KPDX 181953Z VRB04KT 10SM FEW035 23/13 A3019 RMK AO2 SLP223 T02330133
KPDX 181908Z 00000KT 10SM SCT030 21/13 A3021 RMK AO2 T02110133
KPDX 181853Z 08004KT 10SM BKN029 22/13 A3021 RMK AO2 SLP228 T02170133
KPDX 181753Z 00000KT 10SM BKN029 21/13 A3021 RMK AO2 SLP229 T02060133 10206 20172 50004

METAR Board
Radar Display
Forecast Discussion

FOR SITUATIONAL AWARENESS. NOT TO BE USED FOR FLIGHT PLANNING PURPOSES.